Moorhead, MN

6:07 AM CST on December 11, 2016 (GMT -0600)
20th St N | | Change Station

Elev 908 ft 46.89 °N, 96.75 °W | Updated 30 seconds ago

Snow
Snow
8.4 °F
Feels Like 8 °F
N
0.0
Wind Variable Wind from NNE
Gusts 0.0 mph

Today
High -- | Low -- °F
--% Chance of Precip.
Yesterday
High -- | Low -- °F
Precip. -- in
Pressure 30.10 in
Visibility 0.8 miles
Clouds
Windchill 8 °F
Dew Point -1 °F
Humidity 66%
Rainfall 0.00 in
Snow Depth Not available.
8:02 AM 4:38 PM
Waxing Gibbous, 91% visible
METAR KFAR 111153Z 03008KT 3/4SM -SN VV011 M12/M16 A3002 RMK AO2 SLP191 P0004 60009 70009 T11221156 11122 21139 56009
Pressure 30.10 in
Visibility 0.8 miles
Clouds
Windchill 8 °F
Dew Point -1 °F
Humidity 66%
Rainfall 0.00 in
Snow Depth Not available.
8:02 AM 4:38 PM
Waxing Gibbous, 91% visible
METAR KFAR 111153Z 03008KT 3/4SM -SN VV011 M12/M16 A3002 RMK AO2 SLP191 P0004 60009 70009 T11221156 11122 21139 56009

10-Day Weather Forecast

Almanac

Astronomy

Dec. 11, 2016 Rise Set
Actual Time
Civil Twilight
Nautical Twilight
Astronomical Twilight
Moon
Length of Visible Light
Length of Day
Tomorrow will be .
, % of the Moon is Illuminated

Today's Extremes

State Highs State Lows

Community

WunderPhotos

Upload Photos

1,956,710 photos uploaded!

WunderBlog® & News

Nearby

Air Quality

  Air Quality AQ Index Pollutant
Not available.

Snow Depth

Station Depth Elevation

Earthquake Activity

City Distance Mag. Time & Date
Minimum magnitude displayed is 2.5.

Coastal Water Temperatures

Place Temperature

Stations

Nearby Weather Stations

Station Location Temp. Windchill Dew Point Humidity Wind Precip. Elev Updated Type
                   

Watches & Warnings

There are currently no watches in effect.